Time;durP1;ratioP1;P1;durP2;ratioP2;P2;SDS_P1;SDS_P2;PMS_P1;PMS_P2;Temp;Humidity;BMP_temperature;BMP_pressure;BME280_temperature;BME280_humidity;BME280_pressure;Samples;Min_cycle;Max_cycle;Signal;HPM_P1;HPM_P2
2021/12/26 00:00:37;;;;;;;;;;;-2.40;99.90;;;;;;8370628;28;20279;-68
2021/12/26 00:04:39;;;;;;;;;;;-2.40;99.90;;;;;;8373846;28;19972;-68
2021/12/26 00:08:42;;;;;;;;;;;-2.40;99.90;;;;;;8373597;28;19929;-69
2021/12/26 00:12:44;;;;;;;;;;;-2.30;99.90;;;;;;8382141;28;20324;-69
2021/12/26 00:16:46;;;;;;;;;;;-2.30;99.90;;;;;;8389287;28;20391;-69
2021/12/26 00:20:47;;;;;;;;;;;-2.30;99.90;;;;;;8387229;28;19924;-69
2021/12/26 00:24:49;;;;;;;;;;;-2.30;99.90;;;;;;8389871;28;19979;-68
2021/12/26 00:28:55;;;;;;;;;;;-2.30;99.90;;;;;;8384066;28;19931;-68
2021/12/26 00:32:57;;;;;;;;;;;-2.30;99.90;;;;;;8383322;28;19924;-68
2021/12/26 00:36:59;;;;;;;;;;;-2.30;99.90;;;;;;8367209;28;19929;-69
2021/12/26 00:41:00;;;;;;;;;;;-2.30;99.90;;;;;;8383877;28;19964;-68
2021/12/26 00:45:04;;;;;;;;;;;-2.20;99.90;;;;;;8385908;28;19924;-68
2021/12/26 00:49:06;;;;;;;;;;;-2.30;99.90;;;;;;8381718;28;19931;-69
2021/12/26 00:53:08;;;;;;;;;;;-2.40;99.90;;;;;;8366540;28;19925;-68
2021/12/26 00:57:09;;;;;;;;;;;-2.40;99.90;;;;;;8374512;28;19968;-69
2021/12/26 01:01:11;;;;;;;;;;;-2.40;99.90;;;;;;8384071;28;20399;-68
2021/12/26 01:05:14;;;;;;;;;;;-2.50;99.90;;;;;;8377666;28;19925;-69
2021/12/26 01:09:21;;;;;;;;;;;-2.50;99.90;;;;;;8380382;28;19924;-68
2021/12/26 01:13:31;;;;;;;;;;;-2.50;99.90;;;;;;8364611;28;20361;-69
2021/12/26 01:17:34;;;;;;;;;;;-2.50;99.90;;;;;;8383786;28;19929;-69
2021/12/26 01:21:36;;;;;;;;;;;-2.50;99.90;;;;;;8368397;28;19928;-69
2021/12/26 01:25:38;;;;;;;;;;;-2.50;99.90;;;;;;8386558;28;19972;-69
2021/12/26 01:29:39;;;;;;;;;;;-2.60;99.90;;;;;;8374858;28;19936;-68
2021/12/26 01:33:41;;;;;;;;;;;-2.60;99.90;;;;;;8381888;28;20562;-69
2021/12/26 01:37:43;;;;;;;;;;;-2.60;99.90;;;;;;8389392;28;20034;-69
2021/12/26 01:41:45;;;;;;;;;;;-2.50;99.90;;;;;;8365242;28;19970;-68
2021/12/26 01:45:47;;;;;;;;;;;-2.50;99.90;;;;;;8393091;28;19975;-69
2021/12/26 01:49:49;;;;;;;;;;;-2.50;99.90;;;;;;8374134;28;20242;-69
2021/12/26 01:53:51;;;;;;;;;;;-2.50;99.90;;;;;;8386699;28;19933;-69
2021/12/26 01:57:54;;;;;;;;;;;-2.50;99.90;;;;;;8388166;28;19932;-68
2021/12/26 02:01:56;;;;;;;;;;;-2.50;99.90;;;;;;8382054;28;19925;-69
2021/12/26 02:05:57;;;;;;;;;;;-2.50;99.90;;;;;;8399272;28;19924;-69
2021/12/26 02:09:59;;;;;;;;;;;-2.50;99.90;;;;;;8389822;28;20154;-69
2021/12/26 02:14:01;;;;;;;;;;;-2.50;99.90;;;;;;8392252;28;19969;-68
2021/12/26 02:18:05;;;;;;;;;;;-2.60;99.90;;;;;;8386937;28;19928;-69
2021/12/26 02:22:13;;;;;;;;;;;-2.60;99.90;;;;;;8387508;28;19964;-68
2021/12/26 02:30:17;;;;;;;;;;;-2.60;99.90;;;;;;8394136;28;19932;-69
2021/12/26 02:34:18;;;;;;;;;;;-2.60;99.90;;;;;;8389159;28;19955;-69
2021/12/26 02:38:20;;;;;;;;;;;-2.70;99.90;;;;;;8385964;28;19928;-69
2021/12/26 02:42:22;;;;;;;;;;;-2.70;99.90;;;;;;8391271;28;19995;-69
2021/12/26 02:46:25;;;;;;;;;;;-2.70;99.90;;;;;;8384801;28;19932;-69
2021/12/26 02:50:30;;;;;;;;;;;-2.70;99.90;;;;;;8369544;28;19932;-69
2021/12/26 02:54:32;;;;;;;;;;;-2.70;99.90;;;;;;8364800;28;19932;-69
2021/12/26 02:58:33;;;;;;;;;;;-2.70;99.90;;;;;;8356501;28;19932;-69
2021/12/26 03:02:38;;;;;;;;;;;-2.70;99.90;;;;;;8358811;28;19932;-69
2021/12/26 03:07:01;;;;;;;;;;;-2.70;99.90;;;;;;8359260;28;19939;-70
2021/12/26 03:11:03;;;;;;;;;;;-2.70;99.90;;;;;;8356270;28;20391;-69
2021/12/26 03:15:05;;;;;;;;;;;-2.70;99.90;;;;;;8351686;28;19932;-69
2021/12/26 03:19:06;;;;;;;;;;;-2.70;99.90;;;;;;8350344;28;20439;-69
2021/12/26 03:23:09;;;;;;;;;;;-2.70;99.90;;;;;;8355245;28;19964;-69
2021/12/26 03:27:12;;;;;;;;;;;-2.70;99.90;;;;;;8350385;28;19960;-69
2021/12/26 03:31:13;;;;;;;;;;;-2.60;99.90;;;;;;8353210;28;19933;-69
2021/12/26 03:35:17;;;;;;;;;;;-2.60;99.90;;;;;;8347461;28;20010;-69
2021/12/26 03:39:19;;;;;;;;;;;-2.70;99.90;;;;;;8356908;28;19924;-69
2021/12/26 03:43:21;;;;;;;;;;;-2.70;99.90;;;;;;8367952;28;19929;-69
2021/12/26 03:47:23;;;;;;;;;;;-2.70;99.90;;;;;;8357104;28;20430;-70
2021/12/26 03:51:24;;;;;;;;;;;-2.80;99.90;;;;;;8356222;28;20406;-69
2021/12/26 03:55:26;;;;;;;;;;;-2.80;99.90;;;;;;8353261;28;19937;-69
2021/12/26 03:59:28;;;;;;;;;;;-2.80;99.90;;;;;;8358561;28;19964;-69
2021/12/26 04:03:29;;;;;;;;;;;-2.80;99.90;;;;;;8354845;28;19928;-69
2021/12/26 04:07:31;;;;;;;;;;;-2.70;99.90;;;;;;8356579;28;19936;-69
2021/12/26 04:11:35;;;;;;;;;;;-2.70;99.90;;;;;;8355625;28;19935;-69
2021/12/26 04:15:37;;;;;;;;;;;-2.80;99.90;;;;;;8356053;28;19924;-69
2021/12/26 04:19:38;;;;;;;;;;;-2.70;99.90;;;;;;8354925;28;19925;-69
2021/12/26 04:23:40;;;;;;;;;;;-2.80;99.90;;;;;;8353158;28;19943;-69
2021/12/26 04:27:41;;;;;;;;;;;-2.70;99.90;;;;;;8353017;28;19987;-69
2021/12/26 04:31:43;;;;;;;;;;;-2.80;99.90;;;;;;8355877;28;19932;-69
2021/12/26 04:35:45;;;;;;;;;;;-2.80;99.90;;;;;;8355647;28;20565;-70
2021/12/26 04:39:46;;;;;;;;;;;-2.80;99.90;;;;;;8367513;28;19961;-69
2021/12/26 04:43:48;;;;;;;;;;;-2.80;99.90;;;;;;8354205;28;20360;-70
2021/12/26 04:47:50;;;;;;;;;;;-2.80;99.90;;;;;;8355719;28;20427;-69
2021/12/26 04:51:51;;;;;;;;;;;-2.80;99.90;;;;;;8382746;28;19960;-70
2021/12/26 04:55:53;;;;;;;;;;;-2.80;99.90;;;;;;8364908;28;19925;-69
2021/12/26 04:59:55;;;;;;;;;;;-2.80;99.90;;;;;;8384916;28;19977;-69
2021/12/26 05:03:57;;;;;;;;;;;-2.80;99.90;;;;;;8367708;28;19924;-69
2021/12/26 05:07:58;;;;;;;;;;;-2.80;99.90;;;;;;8380889;28;19948;-69
2021/12/26 05:12:00;;;;;;;;;;;-2.80;99.90;;;;;;8389319;28;19967;-69
2021/12/26 05:16:02;;;;;;;;;;;-2.80;99.90;;;;;;8386705;28;19972;-69
2021/12/26 05:20:04;;;;;;;;;;;-2.80;99.90;;;;;;8370097;28;19972;-69
2021/12/26 05:24:06;;;;;;;;;;;-2.90;99.90;;;;;;8378277;28;19929;-69
2021/12/26 05:28:07;;;;;;;;;;;-2.80;99.90;;;;;;8395746;28;19924;-69
2021/12/26 05:32:09;;;;;;;;;;;-2.80;99.90;;;;;;8370539;28;19975;-69
2021/12/26 05:36:11;;;;;;;;;;;-2.90;99.90;;;;;;8376622;28;19987;-69
2021/12/26 05:40:13;;;;;;;;;;;-2.90;99.90;;;;;;8378835;28;20419;-69
2021/12/26 05:44:15;;;;;;;;;;;-2.90;99.90;;;;;;8375471;28;19984;-70
2021/12/26 05:48:17;;;;;;;;;;;-2.90;99.90;;;;;;8393053;28;20346;-69
2021/12/26 05:52:20;;;;;;;;;;;-2.90;99.90;;;;;;8378037;28;21307;-70
2021/12/26 05:56:22;;;;;;;;;;;-2.90;99.90;;;;;;8376078;28;19975;-69
2021/12/26 06:00:23;;;;;;;;;;;-2.90;99.90;;;;;;8377706;28;19932;-69
2021/12/26 06:04:25;;;;;;;;;;;-2.90;99.90;;;;;;8383796;28;19963;-69
2021/12/26 06:08:27;;;;;;;;;;;-2.90;99.90;;;;;;8377162;28;19944;-69
2021/12/26 06:12:28;;;;;;;;;;;-2.90;99.90;;;;;;8385966;28;19924;-69
2021/12/26 06:16:30;;;;;;;;;;;-2.90;99.90;;;;;;8382703;28;19932;-69
2021/12/26 06:20:31;;;;;;;;;;;-2.90;99.90;;;;;;8384008;28;19939;-69
2021/12/26 06:24:34;;;;;;;;;;;-2.90;99.90;;;;;;8371585;28;19925;-69
2021/12/26 06:28:35;;;;;;;;;;;-2.90;99.90;;;;;;8378771;28;19943;-69
2021/12/26 06:32:37;;;;;;;;;;;-3.00;99.90;;;;;;8368617;28;19924;-69
2021/12/26 06:36:38;;;;;;;;;;;-2.90;99.90;;;;;;8359418;28;19924;-68
2021/12/26 06:40:40;;;;;;;;;;;-3.00;99.90;;;;;;8385476;28;19924;-69
2021/12/26 06:44:42;;;;;;;;;;;-3.00;99.90;;;;;;8389979;28;20387;-69
2021/12/26 06:48:44;;;;;;;;;;;-3.00;99.90;;;;;;8388872;28;19928;-69
2021/12/26 06:52:45;;;;;;;;;;;-3.00;99.90;;;;;;8381309;28;19947;-69
2021/12/26 06:56:47;;;;;;;;;;;-3.00;99.90;;;;;;8385447;28;20348;-69
2021/12/26 07:00:48;;;;;;;;;;;-3.00;99.90;;;;;;8390878;28;19952;-68
2021/12/26 07:04:50;;;;;;;;;;;-3.00;99.90;;;;;;8384964;28;19964;-69
2021/12/26 07:08:52;;;;;;;;;;;-3.00;99.90;;;;;;8394299;28;19932;-69
2021/12/26 07:12:53;;;;;;;;;;;-3.00;99.90;;;;;;8384422;28;20296;-69
2021/12/26 07:16:55;;;;;;;;;;;-3.00;99.90;;;;;;8382699;28;19924;-69
2021/12/26 07:20:57;;;;;;;;;;;-3.00;99.90;;;;;;8374884;28;19950;-69
2021/12/26 07:24:58;;;;;;;;;;;-3.10;99.90;;;;;;8380877;28;19974;-69
2021/12/26 07:29:00;;;;;;;;;;;-3.10;99.90;;;;;;8380753;28;19924;-69
2021/12/26 07:33:01;;;;;;;;;;;-3.10;99.90;;;;;;8375862;28;20439;-68
2021/12/26 07:37:04;;;;;;;;;;;-3.00;99.90;;;;;;8385931;28;20007;-69
2021/12/26 07:41:05;;;;;;;;;;;-3.00;99.90;;;;;;8365617;28;20500;-69
2021/12/26 07:45:07;;;;;;;;;;;-3.10;99.90;;;;;;8362350;28;19925;-69
2021/12/26 07:49:09;;;;;;;;;;;-3.00;99.90;;;;;;8358627;28;20032;-69
2021/12/26 07:53:11;;;;;;;;;;;-3.00;99.90;;;;;;8378165;28;20466;-69
2021/12/26 07:57:14;;;;;;;;;;;-3.00;99.90;;;;;;8385203;28;19931;-68
2021/12/26 08:01:16;;;;;;;;;;;-2.90;99.90;;;;;;8397430;28;19924;-68
2021/12/26 08:05:18;;;;;;;;;;;-2.90;99.90;;;;;;8384344;28;19924;-69
2021/12/26 08:09:23;;;;;;;;;;;-2.90;99.90;;;;;;8383668;28;19935;-68
2021/12/26 08:13:27;;;;;;;;;;;-2.90;99.90;;;;;;8360490;28;19932;-69
2021/12/26 08:17:29;;;;;;;;;;;-2.80;99.90;;;;;;8380125;28;20081;-69
2021/12/26 08:21:30;;;;;;;;;;;-2.80;99.90;;;;;;8361363;28;20059;-69
2021/12/26 08:25:32;;;;;;;;;;;-2.70;99.90;;;;;;8375370;28;19935;-69
2021/12/26 08:29:33;;;;;;;;;;;-2.70;99.90;;;;;;8351156;28;19967;-69
2021/12/26 08:33:35;;;;;;;;;;;-2.60;99.90;;;;;;8374098;28;20048;-69
2021/12/26 08:37:38;;;;;;;;;;;-2.60;99.90;;;;;;8379930;28;19924;-69
2021/12/26 08:41:39;;;;;;;;;;;-2.50;99.90;;;;;;8376077;28;19940;-69
2021/12/26 08:45:41;;;;;;;;;;;-2.50;99.90;;;;;;8380400;28;19936;-69
2021/12/26 08:49:43;;;;;;;;;;;-2.40;99.90;;;;;;8380089;28;19929;-68
2021/12/26 08:53:45;;;;;;;;;;;-2.30;99.90;;;;;;8375407;28;20034;-68
2021/12/26 08:57:47;;;;;;;;;;;-2.20;99.90;;;;;;8378100;28;19935;-69
2021/12/26 09:01:49;;;;;;;;;;;-2.10;99.90;;;;;;8350996;28;19972;-69
2021/12/26 09:05:51;;;;;;;;;;;-2.00;99.90;;;;;;8381096;28;19931;-69
2021/12/26 09:09:53;;;;;;;;;;;-1.80;99.90;;;;;;8379410;28;20053;-69
2021/12/26 09:13:54;;;;;;;;;;;-1.60;99.90;;;;;;8349653;28;20393;-69
2021/12/26 09:17:56;;;;;;;;;;;-1.20;99.90;;;;;;8382492;28;20525;-69
2021/12/26 09:21:59;;;;;;;;;;;-0.90;99.90;;;;;;8371786;28;19932;-69
2021/12/26 09:26:01;;;;;;;;;;;-0.40;99.90;;;;;;8381438;28;19960;-69
2021/12/26 09:30:06;;;;;;;;;;;-0.20;99.90;;;;;;8376346;28;19955;-69
2021/12/26 09:34:07;;;;;;;;;;;0.00;99.90;;;;;;8367372;28;20019;-69
2021/12/26 09:38:09;;;;;;;;;;;0.10;99.90;;;;;;8379653;28;20442;-69
2021/12/26 09:42:11;;;;;;;;;;;0.10;99.90;;;;;;8378777;28;20020;-69
2021/12/26 09:46:13;;;;;;;;;;;0.20;99.90;;;;;;8379238;28;19979;-69
2021/12/26 09:50:15;;;;;;;;;;;0.20;99.90;;;;;;8362883;28;19928;-69
2021/12/26 09:54:18;;;;;;;;;;;0.10;99.90;;;;;;8354040;28;19929;-69
2021/12/26 09:58:20;;;;;;;;;;;0.20;99.90;;;;;;8380470;28;19998;-69
2021/12/26 10:02:22;;;;;;;;;;;0.30;99.90;;;;;;8385713;28;19968;-69
2021/12/26 10:06:25;;;;;;;;;;;0.50;99.90;;;;;;8380763;28;19977;-69
2021/12/26 10:10:27;;;;;;;;;;;0.70;99.90;;;;;;8391256;28;19924;-69
2021/12/26 10:14:31;;;;;;;;;;;0.80;99.90;;;;;;8382832;28;19932;-69
2021/12/26 10:18:39;;;;;;;;;;;1.00;99.90;;;;;;8372002;28;20019;-69
2021/12/26 10:22:40;;;;;;;;;;;1.10;99.90;;;;;;8365379;28;20015;-69
2021/12/26 10:26:53;;;;;;;;;;;1.30;99.90;;;;;;8381422;28;19939;-70
2021/12/26 10:31:08;;;;;;;;;;;1.40;99.90;;;;;;8373771;28;20042;-69
2021/12/26 10:35:14;;;;;;;;;;;1.60;99.90;;;;;;8369852;28;19993;-69
2021/12/26 10:39:17;;;;;;;;;;;1.90;99.90;;;;;;8386557;28;19972;-69
2021/12/26 10:43:19;;;;;;;;;;;2.20;99.90;;;;;;8400430;28;19932;-69
2021/12/26 10:47:23;;;;;;;;;;;2.40;99.90;;;;;;8365155;28;19933;-70
2021/12/26 10:51:34;;;;;;;;;;;2.40;99.90;;;;;;8390917;28;19968;-69
2021/12/26 10:55:38;;;;;;;;;;;2.40;99.90;;;;;;8384035;28;20052;-69
2021/12/26 10:59:41;;;;;;;;;;;2.20;99.90;;;;;;8378416;28;19978;-69
2021/12/26 11:03:43;;;;;;;;;;;1.90;99.90;;;;;;8390089;28;19929;-69
2021/12/26 11:07:47;;;;;;;;;;;1.80;99.90;;;;;;8386656;28;20295;-69
2021/12/26 11:12:03;;;;;;;;;;;1.60;99.90;;;;;;8387339;28;19975;-69
2021/12/26 11:16:06;;;;;;;;;;;1.60;99.90;;;;;;8381994;28;20011;-69
2021/12/26 11:20:08;;;;;;;;;;;1.50;99.90;;;;;;8355856;28;20332;-69
2021/12/26 11:24:10;;;;;;;;;;;1.60;99.90;;;;;;8355083;28;19975;-69
2021/12/26 11:28:13;;;;;;;;;;;1.50;99.90;;;;;;8380479;28;20011;-68
2021/12/26 11:32:18;;;;;;;;;;;1.50;99.90;;;;;;8379926;28;20227;-69
2021/12/26 11:36:20;;;;;;;;;;;1.50;99.90;;;;;;8380249;28;19979;-69
2021/12/26 11:40:22;;;;;;;;;;;1.50;99.90;;;;;;8374386;28;20015;-69
2021/12/26 11:44:24;;;;;;;;;;;1.50;99.90;;;;;;8360277;28;19983;-69
2021/12/26 11:48:27;;;;;;;;;;;1.50;99.90;;;;;;8377847;28;20019;-69
2021/12/26 11:52:48;;;;;;;;;;;1.60;99.90;;;;;;8372321;28;19940;-69
2021/12/26 11:56:49;;;;;;;;;;;1.70;99.90;;;;;;8369343;28;20317;-69
2021/12/26 12:00:52;;;;;;;;;;;1.80;99.90;;;;;;8371766;28;20020;-69
2021/12/26 12:05:07;;;;;;;;;;;2.10;99.90;;;;;;8357836;28;19935;-69
2021/12/26 12:09:24;;;;;;;;;;;2.20;99.90;;;;;;8377449;28;20388;-69
2021/12/26 12:13:26;;;;;;;;;;;2.20;99.90;;;;;;8374557;28;19924;-69
2021/12/26 12:17:30;;;;;;;;;;;2.10;99.90;;;;;;8372780;28;20348;-69
2021/12/26 12:21:34;;;;;;;;;;;2.00;99.90;;;;;;8377243;28;19959;-69
2021/12/26 12:25:36;;;;;;;;;;;2.00;99.90;;;;;;8373003;28;19963;-69
2021/12/26 12:29:46;;;;;;;;;;;1.90;99.90;;;;;;8373428;28;20420;-69
2021/12/26 12:33:59;;;;;;;;;;;1.90;99.90;;;;;;8377124;28;19956;-68
2021/12/26 12:38:20;;;;;;;;;;;1.90;99.90;;;;;;8357982;28;19974;-68
2021/12/26 12:42:21;;;;;;;;;;;1.90;99.90;;;;;;8368781;28;20035;-69
2021/12/26 12:46:23;;;;;;;;;;;1.90;99.90;;;;;;8359244;28;20276;-69
2021/12/26 12:50:31;;;;;;;;;;;1.90;99.90;;;;;;8374134;28;20016;-69
2021/12/26 12:54:33;;;;;;;;;;;1.90;99.90;;;;;;8369327;28;20032;-69
2021/12/26 12:58:36;;;;;;;;;;;1.90;99.90;;;;;;8376392;28;20342;-69
2021/12/26 13:02:40;;;;;;;;;;;1.90;99.90;;;;;;8374896;28;19970;-69
2021/12/26 13:06:48;;;;;;;;;;;1.90;99.90;;;;;;8350963;28;20242;-69
2021/12/26 13:10:54;;;;;;;;;;;1.90;99.90;;;;;;8380205;28;19950;-69
2021/12/26 13:14:57;;;;;;;;;;;1.90;99.90;;;;;;8376419;28;19974;-69
2021/12/26 13:19:05;;;;;;;;;;;1.90;99.90;;;;;;8379603;28;19931;-68
2021/12/26 13:23:07;;;;;;;;;;;1.90;99.90;;;;;;8378424;28;19968;-69
2021/12/26 13:27:08;;;;;;;;;;;1.90;99.90;;;;;;8382803;28;20291;-68
2021/12/26 13:31:11;;;;;;;;;;;1.80;99.90;;;;;;8381831;28;19932;-69
2021/12/26 13:35:13;;;;;;;;;;;1.80;99.90;;;;;;8381290;28;20062;-69
2021/12/26 13:39:19;;;;;;;;;;;1.80;99.90;;;;;;8371396;28;20017;-69
2021/12/26 13:43:47;;;;;;;;;;;1.80;99.90;;;;;;8344505;28;19990;-69
2021/12/26 13:47:49;;;;;;;;;;;1.80;99.90;;;;;;8378531;28;20011;-68
2021/12/26 13:51:55;;;;;;;;;;;1.80;99.90;;;;;;8360800;28;20454;-69
2021/12/26 13:55:58;;;;;;;;;;;1.80;99.90;;;;;;8361137;28;19924;-68
2021/12/26 14:00:02;;;;;;;;;;;1.80;99.90;;;;;;8379852;28;20023;-68
2021/12/26 14:04:09;;;;;;;;;;;1.80;99.90;;;;;;8380025;28;20273;-68
2021/12/26 14:08:19;;;;;;;;;;;1.80;99.90;;;;;;8351261;28;20007;-68
2021/12/26 14:12:34;;;;;;;;;;;1.80;99.90;;;;;;8380359;28;19932;-68
2021/12/26 14:16:42;;;;;;;;;;;1.80;99.90;;;;;;8384410;28;19928;-68
2021/12/26 14:20:43;;;;;;;;;;;1.80;99.90;;;;;;8378782;28;19978;-69
2021/12/26 14:24:45;;;;;;;;;;;1.80;99.90;;;;;;8365169;28;19956;-68
2021/12/26 14:28:54;;;;;;;;;;;1.80;99.90;;;;;;8366555;28;20035;-69
2021/12/26 14:32:57;;;;;;;;;;;1.80;99.90;;;;;;8346363;28;19979;-69
2021/12/26 14:37:00;;;;;;;;;;;1.80;99.90;;;;;;8373390;28;20357;-69
2021/12/26 14:41:02;;;;;;;;;;;1.80;99.90;;;;;;8375651;28;19932;-69
2021/12/26 14:45:07;;;;;;;;;;;1.80;99.90;;;;;;8380253;28;20011;-68
2021/12/26 14:49:10;;;;;;;;;;;1.80;99.90;;;;;;8372059;28;19934;-68
2021/12/26 14:53:14;;;;;;;;;;;1.80;99.90;;;;;;8369689;28;20047;-68
2021/12/26 14:57:25;;;;;;;;;;;1.80;99.90;;;;;;8381706;28;19935;-68
2021/12/26 15:01:32;;;;;;;;;;;1.80;99.90;;;;;;8385260;28;19925;-68
2021/12/26 15:05:35;;;;;;;;;;;1.80;99.90;;;;;;8383866;28;19940;-70
2021/12/26 15:09:41;;;;;;;;;;;1.80;99.90;;;;;;8377997;28;19924;-69
2021/12/26 15:13:43;;;;;;;;;;;1.80;99.90;;;;;;8363918;28;19971;-69
2021/12/26 15:18:03;;;;;;;;;;;1.80;99.90;;;;;;8365719;28;19939;-69
2021/12/26 15:22:05;;;;;;;;;;;1.80;99.90;;;;;;8383439;28;19976;-68
2021/12/26 15:26:07;;;;;;;;;;;1.80;99.90;;;;;;8375583;28;20035;-68
2021/12/26 15:30:21;;;;;;;;;;;1.80;99.90;;;;;;8367571;28;19931;-68
2021/12/26 15:34:22;;;;;;;;;;;1.80;99.90;;;;;;8386099;28;19956;-68
2021/12/26 15:38:24;;;;;;;;;;;1.80;99.90;;;;;;8387542;28;19929;-69
2021/12/26 15:42:26;;;;;;;;;;;1.80;99.90;;;;;;8380166;28;19978;-68
2021/12/26 15:46:29;;;;;;;;;;;1.80;99.90;;;;;;8385086;28;19983;-68
2021/12/26 15:50:31;;;;;;;;;;;1.80;99.90;;;;;;8383526;28;20411;-68
2021/12/26 15:54:36;;;;;;;;;;;1.80;99.90;;;;;;8381175;28;19951;-68
2021/12/26 15:58:38;;;;;;;;;;;1.80;99.90;;;;;;8384556;28;19928;-68
2021/12/26 16:02:39;;;;;;;;;;;1.80;99.90;;;;;;8379973;28;19932;-69
2021/12/26 16:06:42;;;;;;;;;;;1.80;99.90;;;;;;8384000;28;20069;-69
2021/12/26 16:10:44;;;;;;;;;;;1.70;99.90;;;;;;8383673;28;20216;-69
2021/12/26 16:14:45;;;;;;;;;;;1.80;99.90;;;;;;8359430;28;19924;-68
2021/12/26 16:18:47;;;;;;;;;;;1.70;99.90;;;;;;8354398;28;20019;-68
2021/12/26 16:22:49;;;;;;;;;;;1.70;99.90;;;;;;8373786;28;20203;-68
2021/12/26 16:26:51;;;;;;;;;;;1.80;99.90;;;;;;8364910;28;19979;-68
2021/12/26 16:30:52;;;;;;;;;;;1.80;99.90;;;;;;8346575;28;19960;-68
2021/12/26 16:34:54;;;;;;;;;;;1.80;99.90;;;;;;8356338;28;19932;-68
2021/12/26 16:38:56;;;;;;;;;;;1.70;99.90;;;;;;8354650;28;20157;-68
2021/12/26 16:42:59;;;;;;;;;;;1.70;99.90;;;;;;8358880;28;19932;-69
2021/12/26 16:47:02;;;;;;;;;;;1.80;99.90;;;;;;8349143;28;20384;-69
2021/12/26 16:51:03;;;;;;;;;;;1.80;99.90;;;;;;8364391;28;20336;-69
2021/12/26 16:55:06;;;;;;;;;;;1.80;99.90;;;;;;8347589;28;19931;-68
2021/12/26 16:59:07;;;;;;;;;;;1.80;99.90;;;;;;8363692;28;20288;-69
2021/12/26 17:03:09;;;;;;;;;;;1.80;99.90;;;;;;8364100;28;19960;-69
2021/12/26 17:07:11;;;;;;;;;;;1.80;99.90;;;;;;8346521;28;20006;-69
2021/12/26 17:11:13;;;;;;;;;;;1.80;99.90;;;;;;8364216;28;20020;-69
2021/12/26 17:15:15;;;;;;;;;;;1.80;99.90;;;;;;8365310;28;19928;-69
2021/12/26 17:19:17;;;;;;;;;;;1.80;99.90;;;;;;8365060;28;19960;-69
2021/12/26 17:23:19;;;;;;;;;;;1.80;99.90;;;;;;8358202;28;20060;-69
2021/12/26 17:27:26;;;;;;;;;;;1.80;99.90;;;;;;8366716;28;19929;-69
2021/12/26 17:31:27;;;;;;;;;;;1.80;99.90;;;;;;8369578;28;20007;-69
2021/12/26 17:35:31;;;;;;;;;;;1.80;99.90;;;;;;8393639;28;19924;-69
2021/12/26 17:39:33;;;;;;;;;;;1.80;99.90;;;;;;8389419;28;20277;-69
2021/12/26 17:43:35;;;;;;;;;;;1.80;99.90;;;;;;8375255;28;19972;-69
2021/12/26 17:47:37;;;;;;;;;;;1.80;99.90;;;;;;8384754;28;19932;-69
2021/12/26 17:51:38;;;;;;;;;;;1.80;99.90;;;;;;8377328;28;19994;-69
2021/12/26 17:55:40;;;;;;;;;;;1.80;99.90;;;;;;8394006;28;19935;-69
2021/12/26 17:59:42;;;;;;;;;;;1.80;99.90;;;;;;8376941;28;19967;-69
2021/12/26 18:03:43;;;;;;;;;;;1.90;99.90;;;;;;8401361;28;20349;-69
2021/12/26 18:07:45;;;;;;;;;;;1.90;99.90;;;;;;8358160;28;19978;-69
2021/12/26 18:11:47;;;;;;;;;;;1.90;99.90;;;;;;8383188;28;19925;-69
2021/12/26 18:15:49;;;;;;;;;;;1.90;99.90;;;;;;8359463;28;20180;-69
2021/12/26 18:19:50;;;;;;;;;;;2.00;99.90;;;;;;8369827;28;19931;-69
2021/12/26 18:23:52;;;;;;;;;;;2.00;99.90;;;;;;8402422;28;20300;-68
2021/12/26 18:27:54;;;;;;;;;;;2.00;99.90;;;;;;8400902;28;19973;-69
2021/12/26 18:31:57;;;;;;;;;;;2.00;99.90;;;;;;8382767;28;19933;-69
2021/12/26 18:35:59;;;;;;;;;;;2.00;99.90;;;;;;8398382;28;19950;-69
2021/12/26 18:40:02;;;;;;;;;;;2.10;99.90;;;;;;8372900;28;19928;-69
2021/12/26 18:44:03;;;;;;;;;;;2.10;99.90;;;;;;8363066;28;19960;-69
2021/12/26 18:48:05;;;;;;;;;;;2.10;99.90;;;;;;8384316;28;19932;-69
2021/12/26 18:52:07;;;;;;;;;;;2.10;99.90;;;;;;8379738;28;19937;-69
2021/12/26 18:56:09;;;;;;;;;;;2.10;99.90;;;;;;8378990;28;19971;-69
2021/12/26 19:00:13;;;;;;;;;;;2.20;99.90;;;;;;8383756;28;20303;-68
2021/12/26 19:04:15;;;;;;;;;;;2.20;99.90;;;;;;8380788;28;19979;-69
2021/12/26 19:08:17;;;;;;;;;;;2.20;99.90;;;;;;8378066;28;19944;-69
2021/12/26 19:12:19;;;;;;;;;;;2.20;99.90;;;;;;8377275;28;20023;-69
2021/12/26 19:16:20;;;;;;;;;;;2.20;99.90;;;;;;8356416;28;19952;-69
2021/12/26 19:20:22;;;;;;;;;;;2.20;99.90;;;;;;8381631;28;19927;-68
2021/12/26 19:24:24;;;;;;;;;;;2.20;99.90;;;;;;8386778;28;19970;-69
2021/12/26 19:28:34;;;;;;;;;;;2.20;99.90;;;;;;8378965;28;19932;-69
2021/12/26 19:32:35;;;;;;;;;;;2.30;99.90;;;;;;8385463;28;19932;-69
2021/12/26 19:36:37;;;;;;;;;;;2.30;99.90;;;;;;8393520;28;19924;-69
2021/12/26 19:40:39;;;;;;;;;;;2.30;99.90;;;;;;8386329;28;20375;-69
2021/12/26 19:44:41;;;;;;;;;;;2.30;99.90;;;;;;8393744;28;19931;-69
2021/12/26 19:48:43;;;;;;;;;;;2.30;99.90;;;;;;8387003;28;20411;-69
2021/12/26 19:52:44;;;;;;;;;;;2.30;99.90;;;;;;8394544;28;19963;-69
2021/12/26 19:56:46;;;;;;;;;;;2.30;99.90;;;;;;8389488;28;19968;-69
2021/12/26 20:00:48;;;;;;;;;;;2.30;99.90;;;;;;8391369;28;20011;-69
2021/12/26 20:04:49;;;;;;;;;;;2.30;99.90;;;;;;8401520;28;20019;-69
2021/12/26 20:08:51;;;;;;;;;;;2.30;99.90;;;;;;8391624;28;19928;-69
2021/12/26 20:12:53;;;;;;;;;;;2.30;99.90;;;;;;8400907;28;20035;-69
2021/12/26 20:16:55;;;;;;;;;;;2.30;99.90;;;;;;8374164;28;20004;-69
2021/12/26 20:20:57;;;;;;;;;;;2.30;99.90;;;;;;8396134;28;19931;-69
2021/12/26 20:24:59;;;;;;;;;;;2.30;99.90;;;;;;8398419;28;20011;-69
2021/12/26 20:29:00;;;;;;;;;;;2.40;99.90;;;;;;8390026;28;19963;-69
2021/12/26 20:33:04;;;;;;;;;;;2.40;99.90;;;;;;8390165;28;19924;-69
2021/12/26 20:37:06;;;;;;;;;;;2.40;99.90;;;;;;8390608;28;20387;-69
2021/12/26 20:41:08;;;;;;;;;;;2.40;99.90;;;;;;8388372;28;19977;-69
2021/12/26 20:45:11;;;;;;;;;;;2.40;99.90;;;;;;8394981;28;19978;-69
2021/12/26 20:49:12;;;;;;;;;;;2.40;99.90;;;;;;8389157;28;21101;-69
2021/12/26 20:53:14;;;;;;;;;;;2.40;99.90;;;;;;8386810;28;20092;-69
2021/12/26 20:57:16;;;;;;;;;;;2.40;99.90;;;;;;8378719;28;19991;-69
2021/12/26 21:01:17;;;;;;;;;;;2.40;99.90;;;;;;8373887;28;20443;-69
2021/12/26 21:05:19;;;;;;;;;;;2.40;99.90;;;;;;8401577;28;19963;-69
2021/12/26 21:09:23;;;;;;;;;;;2.40;99.90;;;;;;8352046;28;20436;-69
2021/12/26 21:13:24;;;;;;;;;;;2.40;99.90;;;;;;8376706;28;19928;-69
2021/12/26 21:17:26;;;;;;;;;;;2.40;99.90;;;;;;8372956;28;20027;-69
2021/12/26 21:21:28;;;;;;;;;;;2.40;99.90;;;;;;8386990;28;20208;-69
2021/12/26 21:25:30;;;;;;;;;;;2.40;99.90;;;;;;8382723;28;19967;-69
2021/12/26 21:29:32;;;;;;;;;;;2.50;99.90;;;;;;8373390;28;19932;-69
2021/12/26 21:33:33;;;;;;;;;;;2.50;99.90;;;;;;8384575;28;20350;-69
2021/12/26 21:37:35;;;;;;;;;;;2.50;99.90;;;;;;8381842;28;20345;-69
2021/12/26 21:41:37;;;;;;;;;;;2.50;99.90;;;;;;8389806;28;20011;-69
2021/12/26 21:45:38;;;;;;;;;;;2.50;99.90;;;;;;8396001;28;19979;-69
2021/12/26 21:49:47;;;;;;;;;;;2.50;99.90;;;;;;8368028;28;20428;-69
2021/12/26 21:53:48;;;;;;;;;;;2.50;99.90;;;;;;8392398;28;19968;-69
2021/12/26 21:57:52;;;;;;;;;;;2.40;99.90;;;;;;8355343;28;19933;-69
2021/12/26 22:01:54;;;;;;;;;;;2.50;99.90;;;;;;8373532;28;19971;-69
2021/12/26 22:05:56;;;;;;;;;;;2.50;99.90;;;;;;8369862;28;19958;-69
2021/12/26 22:09:57;;;;;;;;;;;2.50;99.90;;;;;;8374110;28;19980;-69
2021/12/26 22:13:59;;;;;;;;;;;2.50;99.90;;;;;;8376963;28;19964;-69
2021/12/26 22:18:00;;;;;;;;;;;2.50;99.90;;;;;;8384961;28;19925;-69
2021/12/26 22:22:02;;;;;;;;;;;2.50;99.90;;;;;;8381749;28;20343;-69
2021/12/26 22:26:04;;;;;;;;;;;2.50;99.90;;;;;;8384874;28;20344;-69
2021/12/26 22:30:07;;;;;;;;;;;2.50;99.90;;;;;;8376418;28;19932;-69
2021/12/26 22:34:09;;;;;;;;;;;2.50;99.90;;;;;;8382988;28;20058;-69
2021/12/26 22:38:10;;;;;;;;;;;2.50;99.90;;;;;;8385995;28;19962;-69
2021/12/26 22:42:12;;;;;;;;;;;2.50;99.90;;;;;;8387387;28;19959;-69
2021/12/26 22:46:13;;;;;;;;;;;2.50;99.90;;;;;;8389342;28;20671;-69
2021/12/26 22:50:17;;;;;;;;;;;2.50;99.90;;;;;;8388404;28;19939;-69
2021/12/26 22:54:18;;;;;;;;;;;2.50;99.90;;;;;;8366376;28;20427;-69
2021/12/26 22:58:20;;;;;;;;;;;2.60;99.90;;;;;;8395703;28;19982;-69
2021/12/26 23:02:22;;;;;;;;;;;2.60;99.90;;;;;;8365850;28;20023;-69
2021/12/26 23:06:23;;;;;;;;;;;2.60;99.90;;;;;;8360688;28;19982;-69
2021/12/26 23:10:25;;;;;;;;;;;2.60;99.90;;;;;;8376326;28;19925;-69
2021/12/26 23:14:26;;;;;;;;;;;2.60;99.90;;;;;;8366248;28;20023;-69
2021/12/26 23:18:29;;;;;;;;;;;2.60;99.90;;;;;;8357657;28;20372;-69
2021/12/26 23:22:34;;;;;;;;;;;2.60;99.90;;;;;;8378715;28;19962;-69
2021/12/26 23:26:35;;;;;;;;;;;2.60;99.90;;;;;;8355535;28;19939;-69
2021/12/26 23:30:37;;;;;;;;;;;2.60;99.90;;;;;;8381873;28;20426;-69
2021/12/26 23:34:39;;;;;;;;;;;2.70;99.90;;;;;;8376440;28;19932;-69
2021/12/26 23:38:40;;;;;;;;;;;2.60;99.90;;;;;;8375585;28;20406;-69
2021/12/26 23:42:42;;;;;;;;;;;2.70;99.90;;;;;;8366556;28;19960;-69
2021/12/26 23:46:44;;;;;;;;;;;2.70;99.90;;;;;;8376578;28;19944;-69